Time;durP1;ratioP1;P1;durP2;ratioP2;P2;SDS_P1;SDS_P2;PMS_P1;PMS_P2;Temp;Humidity;BMP_temperature;BMP_pressure;BME280_temperature;BME280_humidity;BME280_pressure;Samples;Min_cycle;Max_cycle;Signal;HPM_P1;HPM_P2
2024/01/24 00:00:57;;;;;;;;;;;;;;;3.28;100.00;94048.19;5065779;28;19931;-74
2024/01/24 00:03:23;;;;;;;;;;;;;;;3.27;100.00;94052.44;5061774;28;19924;-73
2024/01/24 00:05:50;;;;;;;;;;;;;;;3.20;100.00;94057.28;5061949;28;19920;-73
2024/01/24 00:08:17;;;;;;;;;;;;;;;3.21;100.00;94053.03;5060853;28;20011;-74
2024/01/24 00:10:44;;;;;;;;;;;;;;;3.22;100.00;94069.84;5066602;28;19924;-74
2024/01/24 00:13:12;;;;;;;;;;;;;;;3.20;99.92;94061.59;5066534;28;20396;-74
2024/01/24 00:15:38;;;;;;;;;;;;;;;3.18;99.77;94066.00;5057598;28;19934;-73
2024/01/24 00:18:05;;;;;;;;;;;;;;;3.10;99.84;94074.31;5061283;28;20439;-73
2024/01/24 00:20:32;;;;;;;;;;;;;;;3.07;100.00;94084.78;5066288;28;19938;-73
2024/01/24 00:22:58;;;;;;;;;;;;;;;3.04;100.00;94079.97;5066159;28;19924;-73
2024/01/24 00:25:25;;;;;;;;;;;;;;;2.96;100.00;94078.13;5063375;28;19930;-73
2024/01/24 00:27:52;;;;;;;;;;;;;;;2.92;100.00;94084.44;5066530;28;19920;-73
2024/01/24 00:30:20;;;;;;;;;;;;;;;2.90;100.00;94078.69;5065755;28;19924;-73
2024/01/24 00:32:48;;;;;;;;;;;;;;;2.86;100.00;94075.63;5063083;28;19924;-73
2024/01/24 00:35:15;;;;;;;;;;;;;;;2.79;100.00;94083.00;5062378;28;19932;-73
2024/01/24 00:37:41;;;;;;;;;;;;;;;2.72;100.00;94083.72;5060104;28;20378;-73
2024/01/24 00:40:09;;;;;;;;;;;;;;;2.73;100.00;94088.63;5065635;28;19970;-73
2024/01/24 00:42:35;;;;;;;;;;;;;;;2.72;100.00;94093.88;5063490;28;20300;-72
2024/01/24 00:45:02;;;;;;;;;;;;;;;2.74;100.00;94092.00;5058704;28;20421;-73
2024/01/24 00:47:30;;;;;;;;;;;;;;;2.69;100.00;94086.53;5060717;28;19921;-73
2024/01/24 00:49:57;;;;;;;;;;;;;;;2.61;100.00;94088.03;5064525;28;20465;-73
2024/01/24 00:52:23;;;;;;;;;;;;;;;2.56;100.00;94087.66;5061159;28;20403;-73
2024/01/24 00:54:50;;;;;;;;;;;;;;;2.55;100.00;94096.19;5061799;28;19924;-73
2024/01/24 00:57:17;;;;;;;;;;;;;;;2.53;100.00;94092.97;5064911;28;19931;-73
2024/01/24 00:59:43;;;;;;;;;;;;;;;2.45;100.00;94093.66;5062695;28;20277;-73
2024/01/24 01:02:10;;;;;;;;;;;;;;;2.43;100.00;94087.94;5064518;28;19930;-73
2024/01/24 01:04:38;;;;;;;;;;;;;;;2.39;100.00;94086.63;5062257;28;19920;-73
2024/01/24 01:07:05;;;;;;;;;;;;;;;2.35;100.00;94077.69;5064118;28;20439;-73
2024/01/24 01:09:31;;;;;;;;;;;;;;;2.37;100.00;94083.44;5062181;28;20786;-73
2024/01/24 01:11:58;;;;;;;;;;;;;;;2.31;100.00;94079.69;5061683;28;19931;-73
2024/01/24 01:14:25;;;;;;;;;;;;;;;2.35;100.00;94078.47;5061541;28;19982;-73
2024/01/24 01:16:51;;;;;;;;;;;;;;;2.33;100.00;94077.84;5056560;28;20072;-73
2024/01/24 01:19:18;;;;;;;;;;;;;;;2.34;100.00;94083.69;5064528;28;20330;-72
2024/01/24 01:21:46;;;;;;;;;;;;;;;2.31;100.00;94084.75;5063936;28;19928;-72
2024/01/24 01:24:13;;;;;;;;;;;;;;;2.31;100.00;94086.50;5060960;28;19955;-73
2024/01/24 01:26:40;;;;;;;;;;;;;;;2.31;100.00;94078.91;5065491;28;19930;-72
2024/01/24 01:29:07;;;;;;;;;;;;;;;2.27;99.70;94080.91;5065228;28;20027;-72
2024/01/24 01:31:33;;;;;;;;;;;;;;;2.23;99.98;94084.66;5059150;28;20028;-72
2024/01/24 01:34:00;;;;;;;;;;;;;;;2.20;99.75;94084.91;5064613;28;19920;-73
2024/01/24 01:36:27;;;;;;;;;;;;;;;2.14;99.94;94081.97;5064472;28;20456;-72
2024/01/24 01:38:55;;;;;;;;;;;;;;;2.12;99.47;94090.66;5061282;28;20030;-72
2024/01/24 01:41:22;;;;;;;;;;;;;;;2.08;98.77;94086.81;5059508;28;20396;-73
2024/01/24 01:43:48;;;;;;;;;;;;;;;2.03;99.42;94081.34;5063657;28;20300;-72
2024/01/24 01:46:17;;;;;;;;;;;;;;;1.97;99.89;94085.22;5060289;28;19931;-72
2024/01/24 01:48:44;;;;;;;;;;;;;;;1.89;99.96;94072.44;5062794;28;19932;-73
2024/01/24 01:51:11;;;;;;;;;;;;;;;1.83;100.00;94079.63;5060363;28;19962;-72
2024/01/24 01:53:39;;;;;;;;;;;;;;;1.76;100.00;94065.88;5063631;28;19924;-72
2024/01/24 01:56:09;;;;;;;;;;;;;;;1.75;99.68;94058.44;5061701;28;19932;-72
2024/01/24 01:58:36;;;;;;;;;;;;;;;1.67;99.19;94054.03;5062193;28;19924;-72
2024/01/24 02:01:03;;;;;;;;;;;;;;;1.67;99.71;94059.09;5058701;28;19935;-72
2024/01/24 02:03:30;;;;;;;;;;;;;;;1.63;100.00;94060.28;5062996;28;20308;-72
2024/01/24 02:05:56;;;;;;;;;;;;;;;1.58;100.00;94058.97;5057713;28;20645;-73
2024/01/24 02:08:23;;;;;;;;;;;;;;;1.57;100.00;94059.13;5063412;28;20316;-73
2024/01/24 02:10:50;;;;;;;;;;;;;;;1.60;100.00;94054.56;5062446;28;19920;-73
2024/01/24 02:13:18;;;;;;;;;;;;;;;1.63;100.00;94045.09;5061894;28;19926;-72
2024/01/24 02:15:45;;;;;;;;;;;;;;;1.60;99.25;94046.16;5060228;28;19962;-73
2024/01/24 02:18:11;;;;;;;;;;;;;;;1.56;99.09;94040.56;5060752;28;19924;-73
2024/01/24 02:20:38;;;;;;;;;;;;;;;1.42;98.23;94054.44;5058374;28;20012;-72
2024/01/24 02:23:05;;;;;;;;;;;;;;;1.39;99.20;94039.50;5060630;28;19986;-72
2024/01/24 02:25:33;;;;;;;;;;;;;;;1.17;100.00;94028.69;5063566;28;19920;-72
2024/01/24 02:27:59;;;;;;;;;;;;;;;1.25;100.00;94030.56;5062114;28;19924;-73
2024/01/24 02:30:26;;;;;;;;;;;;;;;1.27;100.00;94038.84;5060021;28;19934;-72
2024/01/24 02:32:53;;;;;;;;;;;;;;;1.28;100.00;94035.38;5062806;28;19920;-72
2024/01/24 02:35:19;;;;;;;;;;;;;;;1.23;100.00;94027.38;5063354;28;19936;-72
2024/01/24 02:37:46;;;;;;;;;;;;;;;1.17;98.21;94038.03;5061344;28;20043;-73
2024/01/24 02:40:12;;;;;;;;;;;;;;;1.14;97.20;94043.31;5060250;28;19925;-73
2024/01/24 02:42:40;;;;;;;;;;;;;;;1.08;99.10;94033.72;5058325;28;20003;-72
2024/01/24 02:45:07;;;;;;;;;;;;;;;1.02;100.00;94047.72;5059612;28;20162;-74
2024/01/24 02:47:34;;;;;;;;;;;;;;;1.02;100.00;94033.31;5058308;28;20086;-73
2024/01/24 02:50:01;;;;;;;;;;;;;;;0.97;100.00;94029.59;5063003;28;20237;-74
2024/01/24 02:52:28;;;;;;;;;;;;;;;0.97;100.00;94042.25;5056485;28;19931;-74
2024/01/24 02:54:55;;;;;;;;;;;;;;;0.89;100.00;94040.34;5060276;28;19924;-74
2024/01/24 02:57:21;;;;;;;;;;;;;;;0.81;100.00;94038.47;5061416;28;19925;-74
2024/01/24 02:59:49;;;;;;;;;;;;;;;0.80;100.00;94040.19;5059507;28;19970;-74
2024/01/24 03:02:16;;;;;;;;;;;;;;;0.86;100.00;94038.88;5057255;28;20345;-74
2024/01/24 03:04:43;;;;;;;;;;;;;;;0.85;100.00;94029.72;5059019;28;20657;-74
2024/01/24 03:07:09;;;;;;;;;;;;;;;0.92;100.00;94035.03;5060789;28;20011;-74
2024/01/24 03:09:36;;;;;;;;;;;;;;;0.78;100.00;94031.13;5059184;28;19931;-74
2024/01/24 03:12:03;;;;;;;;;;;;;;;0.85;100.00;94029.72;5058945;28;19929;-74
2024/01/24 03:14:29;;;;;;;;;;;;;;;0.84;100.00;94024.78;5056312;28;20465;-73
2024/01/24 03:16:57;;;;;;;;;;;;;;;0.84;100.00;94023.06;5059173;28;20275;-73
2024/01/24 03:19:24;;;;;;;;;;;;;;;0.89;100.00;94015.06;5060150;28;19920;-74
2024/01/24 03:21:51;;;;;;;;;;;;;;;0.88;100.00;94026.91;5060700;28;19955;-74
2024/01/24 03:24:18;;;;;;;;;;;;;;;0.69;99.20;94021.81;5059213;28;20029;-74
2024/01/24 03:26:44;;;;;;;;;;;;;;;0.65;98.36;94014.47;5060607;28;20305;-74
2024/01/24 03:29:13;;;;;;;;;;;;;;;0.59;98.65;94011.63;5059839;28;19924;-74
2024/01/24 03:31:42;;;;;;;;;;;;;;;0.56;98.73;94017.78;5059051;28;19978;-74
2024/01/24 03:34:11;;;;;;;;;;;;;;;0.42;97.97;94015.59;5059619;28;20018;-74
2024/01/24 03:36:37;;;;;;;;;;;;;;;0.33;98.16;94024.72;5062251;28;20472;-74
2024/01/24 03:39:05;;;;;;;;;;;;;;;0.29;97.44;94028.44;5058103;28;19924;-74
2024/01/24 03:41:32;;;;;;;;;;;;;;;0.21;96.66;94037.44;5060784;28;19928;-74
2024/01/24 03:43:58;;;;;;;;;;;;;;;0.10;98.99;94032.47;5055152;28;20409;-74
2024/01/24 03:46:25;;;;;;;;;;;;;;;0.08;100.00;94024.19;5058970;28;19924;-74
2024/01/24 03:48:52;;;;;;;;;;;;;;;0.06;100.00;94024.34;5057474;28;20030;-74
2024/01/24 03:51:20;;;;;;;;;;;;;;;0.13;100.00;94037.25;5057386;28;19924;-74
2024/01/24 03:53:47;;;;;;;;;;;;;;;0.15;100.00;94024.50;5058592;28;19928;-74
2024/01/24 03:56:14;;;;;;;;;;;;;;;0.13;100.00;94029.69;5060864;28;20338;-75
2024/01/24 03:58:40;;;;;;;;;;;;;;;0.12;100.00;94028.91;5060262;28;19924;-74
2024/01/24 04:01:07;;;;;;;;;;;;;;;0.01;100.00;94020.59;5062751;28;20263;-74
2024/01/24 04:03:34;;;;;;;;;;;;;;;-0.02;100.00;94016.56;5059878;28;20266;-74
2024/01/24 04:06:00;;;;;;;;;;;;;;;0.01;100.00;94011.28;5062551;28;20415;-75
2024/01/24 04:08:28;;;;;;;;;;;;;;;0.06;100.00;94023.53;5061410;28;19924;-74
2024/01/24 04:10:55;;;;;;;;;;;;;;;0.02;99.44;94028.03;5061951;28;19931;-74
2024/01/24 04:13:21;;;;;;;;;;;;;;;-0.04;100.00;94031.84;5058852;28;19928;-75
2024/01/24 04:15:48;;;;;;;;;;;;;;;-0.01;100.00;94046.78;5052868;28;19920;-74
2024/01/24 04:18:15;;;;;;;;;;;;;;;-0.09;98.81;94044.03;5060262;28;19931;-75
2024/01/24 04:20:44;;;;;;;;;;;;;;;-0.07;100.00;94052.31;5062075;28;20465;-74
2024/01/24 04:23:10;;;;;;;;;;;;;;;-0.06;99.79;94048.06;5062875;28;19950;-74
2024/01/24 04:25:38;;;;;;;;;;;;;;;-0.10;100.00;94046.72;5060560;28;20317;-74
2024/01/24 04:28:05;;;;;;;;;;;;;;;-0.08;99.65;94058.31;5066097;28;19924;-74
2024/01/24 04:30:32;;;;;;;;;;;;;;;-0.16;97.36;94073.25;5060273;28;20008;-74
2024/01/24 04:32:58;;;;;;;;;;;;;;;-0.39;95.30;94075.06;5065524;28;19930;-75
2024/01/24 04:35:25;;;;;;;;;;;;;;;-0.39;98.11;94059.91;5065654;28;20004;-74
2024/01/24 04:38:28;;;;;;;;;;;;;;;;;;;;;
2024/01/24 04:40:56;;;;;;;;;;;;;;;-0.51;98.38;94059.19;5058606;28;19924;-74
2024/01/24 04:43:23;;;;;;;;;;;;;;;-0.55;98.14;94061.94;5062747;28;19930;-74
2024/01/24 04:45:49;;;;;;;;;;;;;;;-0.61;99.51;94059.88;5060268;28;19931;-74
2024/01/24 04:48:16;;;;;;;;;;;;;;;-0.60;100.00;94055.66;5062478;28;20439;-74
2024/01/24 04:50:43;;;;;;;;;;;;;;;-0.60;99.13;94063.22;5061529;28;19924;-74
2024/01/24 04:53:10;;;;;;;;;;;;;;;-0.66;98.54;94064.50;5063085;28;19960;-74
2024/01/24 04:55:36;;;;;;;;;;;;;;;-0.66;99.62;94066.22;5065553;28;19925;-74
2024/01/24 04:58:05;;;;;;;;;;;;;;;-0.64;99.06;94067.72;5060543;28;19972;-74
2024/01/24 05:00:32;;;;;;;;;;;;;;;-0.66;98.95;94083.88;5065399;28;19924;-74
2024/01/24 05:02:58;;;;;;;;;;;;;;;-0.65;98.94;94088.00;5063025;28;20006;-74
2024/01/24 05:05:26;;;;;;;;;;;;;;;-0.62;99.04;94080.19;5065866;28;19920;-75
2024/01/24 05:07:53;;;;;;;;;;;;;;;-0.93;98.25;94082.56;5063836;28;19920;-75
2024/01/24 05:10:20;;;;;;;;;;;;;;;-0.88;99.57;94078.75;5060950;28;19924;-75
2024/01/24 05:12:47;;;;;;;;;;;;;;;-0.80;99.52;94078.16;5064138;28;19931;-75
2024/01/24 05:15:15;;;;;;;;;;;;;;;-0.85;98.08;94080.25;5062607;28;19926;-75
2024/01/24 05:17:42;;;;;;;;;;;;;;;-0.87;98.60;94093.00;5060385;28;20019;-75
2024/01/24 05:20:10;;;;;;;;;;;;;;;-0.88;97.83;94098.16;5064812;28;20412;-75
2024/01/24 05:22:37;;;;;;;;;;;;;;;-0.89;98.64;94099.84;5062870;28;19924;-75
2024/01/24 05:25:04;;;;;;;;;;;;;;;-0.92;98.73;94100.13;5061760;28;19924;-75
2024/01/24 05:27:31;;;;;;;;;;;;;;;-0.93;99.09;94100.22;5060524;28;19924;-75
2024/01/24 05:29:58;;;;;;;;;;;;;;;-0.99;98.54;94098.94;5059960;28;19924;-76
2024/01/24 05:32:26;;;;;;;;;;;;;;;-1.02;98.48;94097.47;5064412;28;20658;-76
2024/01/24 05:34:53;;;;;;;;;;;;;;;-0.94;99.01;94091.84;5062680;28;19924;-76
2024/01/24 05:37:19;;;;;;;;;;;;;;;-0.99;99.20;94088.88;5061818;28;20722;-76
2024/01/24 05:39:47;;;;;;;;;;;;;;;-0.88;98.38;94095.63;5058183;28;20173;-75
2024/01/24 05:42:13;;;;;;;;;;;;;;;-0.94;98.25;94086.78;5060727;28;19924;-75
2024/01/24 05:44:40;;;;;;;;;;;;;;;-0.92;98.24;94096.78;5060027;28;19930;-76
2024/01/24 05:47:07;;;;;;;;;;;;;;;-0.96;96.59;94093.69;5060377;28;19967;-75
2024/01/24 05:49:37;;;;;;;;;;;;;;;-1.03;95.97;94098.38;5063474;28;19966;-75
2024/01/24 05:52:04;;;;;;;;;;;;;;;-1.06;95.29;94106.19;5063284;28;19924;-76
2024/01/24 05:54:31;;;;;;;;;;;;;;;-1.01;95.39;94109.19;5062053;28;19925;-75
2024/01/24 05:56:58;;;;;;;;;;;;;;;-1.05;95.18;94107.81;5063179;28;19924;-76
2024/01/24 05:59:24;;;;;;;;;;;;;;;-1.07;96.22;94104.56;5064830;28;19924;-75
2024/01/24 06:01:51;;;;;;;;;;;;;;;-1.12;97.60;94107.47;5063764;28;20017;-76
2024/01/24 06:04:18;;;;;;;;;;;;;;;-1.13;97.62;94094.97;5060488;28;19968;-75
2024/01/24 06:06:46;;;;;;;;;;;;;;;-0.99;97.28;94104.00;5060635;28;20044;-75
2024/01/24 06:09:13;;;;;;;;;;;;;;;-0.99;97.36;94104.81;5059648;28;19965;-75
2024/01/24 06:11:39;;;;;;;;;;;;;;;-0.95;96.81;94098.63;5063594;28;19920;-75
2024/01/24 06:14:06;;;;;;;;;;;;;;;-0.97;96.91;94102.97;5060287;28;19925;-75
2024/01/24 06:16:32;;;;;;;;;;;;;;;-0.89;97.45;94106.66;5057806;28;19932;-75
2024/01/24 06:18:59;;;;;;;;;;;;;;;-0.90;97.06;94105.03;5059289;28;19924;-75
2024/01/24 06:21:26;;;;;;;;;;;;;;;-0.96;96.14;94104.56;5062325;28;19924;-75
2024/01/24 06:23:54;;;;;;;;;;;;;;;-0.97;95.92;94110.53;5061655;28;19924;-74
2024/01/24 06:26:20;;;;;;;;;;;;;;;-0.99;95.91;94107.34;5061115;28;19930;-75
2024/01/24 06:28:47;;;;;;;;;;;;;;;-0.97;97.65;94099.66;5057234;28;20642;-74
2024/01/24 06:31:15;;;;;;;;;;;;;;;-0.91;97.43;94098.38;5055814;28;20257;-75
2024/01/24 06:33:42;;;;;;;;;;;;;;;-0.93;97.86;94098.47;5048903;28;19931;-74
2024/01/24 06:36:08;;;;;;;;;;;;;;;-0.93;98.22;94097.69;5051849;28;20443;-75
2024/01/24 06:38:35;;;;;;;;;;;;;;;-0.91;98.33;94098.38;5050675;28;20114;-74
2024/01/24 06:41:03;;;;;;;;;;;;;;;-1.02;98.62;94062.16;5049467;28;20713;-74
2024/01/24 06:43:30;;;;;;;;;;;;;;;-1.30;97.10;94098.75;5052230;28;19925;-74
2024/01/24 06:45:57;;;;;;;;;;;;;;;-1.07;98.16;94102.06;5050354;28;20012;-74
2024/01/24 06:48:24;;;;;;;;;;;;;;;-1.15;98.29;94094.28;5048821;28;20524;-74
2024/01/24 06:50:50;;;;;;;;;;;;;;;-1.05;98.24;94095.19;5048180;28;19931;-74
2024/01/24 06:53:17;;;;;;;;;;;;;;;-0.95;98.75;94082.69;5049250;28;20658;-74
2024/01/24 06:55:44;;;;;;;;;;;;;;;-1.01;98.40;94089.00;5047399;28;19935;-74
2024/01/24 06:58:12;;;;;;;;;;;;;;;-1.18;100.00;94089.47;5048809;28;20682;-74
2024/01/24 07:00:38;;;;;;;;;;;;;;;-1.05;100.00;94090.16;5050567;28;19931;-74
2024/01/24 07:03:05;;;;;;;;;;;;;;;-0.92;100.00;94095.06;5052211;28;19928;-74
2024/01/24 07:05:32;;;;;;;;;;;;;;;-0.83;100.00;94084.25;5052119;28;19931;-73
2024/01/24 07:07:58;;;;;;;;;;;;;;;-0.91;100.00;94050.44;5048918;28;19930;-73
2024/01/24 07:10:25;;;;;;;;;;;;;;;-0.59;100.00;94077.44;5047344;28;19931;-73
2024/01/24 07:12:52;;;;;;;;;;;;;;;-0.37;100.00;94084.13;5048864;28;19925;-73
2024/01/24 07:15:20;;;;;;;;;;;;;;;-0.20;100.00;94082.78;5048709;28;19927;-73
2024/01/24 07:17:47;;;;;;;;;;;;;;;-0.20;100.00;94052.50;5048604;28;19964;-73
2024/01/24 07:20:15;;;;;;;;;;;;;;;0.17;100.00;94086.63;5053325;28;19927;-74
2024/01/24 07:22:42;;;;;;;;;;;;;;;0.33;100.00;94088.69;5050723;28;20015;-74
2024/01/24 07:25:09;;;;;;;;;;;;;;;0.53;100.00;94083.75;5049788;28;19931;-74
2024/01/24 07:27:36;;;;;;;;;;;;;;;0.72;100.00;94077.97;5047216;28;19924;-74
2024/01/24 07:30:04;;;;;;;;;;;;;;;0.93;100.00;94089.78;5050213;28;19924;-74
2024/01/24 07:32:32;;;;;;;;;;;;;;;1.14;97.99;94094.75;5048204;28;20600;-74
2024/01/24 07:34:59;;;;;;;;;;;;;;;1.33;96.38;94094.00;5053728;28;19924;-75
2024/01/24 07:37:25;;;;;;;;;;;;;;;1.52;94.35;94089.88;5046289;28;19924;-76
2024/01/24 07:39:53;;;;;;;;;;;;;;;1.71;92.87;94099.22;5049478;28;20310;-75
2024/01/24 07:42:20;;;;;;;;;;;;;;;1.22;95.57;94108.47;5050649;28;19928;-75
2024/01/24 07:44:47;;;;;;;;;;;;;;;1.41;95.27;94102.66;5052724;28;19924;-74
2024/01/24 07:47:14;;;;;;;;;;;;;;;1.59;95.15;94108.66;5050496;28;19921;-74
2024/01/24 07:49:42;;;;;;;;;;;;;;;1.76;94.64;94103.09;5050115;28;19927;-74
2024/01/24 07:52:09;;;;;;;;;;;;;;;1.93;94.91;94102.44;5049529;28;19924;-75
2024/01/24 07:54:35;;;;;;;;;;;;;;;2.10;92.98;94100.16;5062393;28;19920;-75
2024/01/24 07:57:03;;;;;;;;;;;;;;;2.27;92.40;94113.88;5049306;28;19931;-75
2024/01/24 07:59:30;;;;;;;;;;;;;;;2.38;91.98;94101.03;5046961;28;19925;-75
2024/01/24 08:01:57;;;;;;;;;;;;;;;2.54;91.71;94110.59;5053697;28;19920;-75
2024/01/24 08:04:23;;;;;;;;;;;;;;;2.67;91.11;94109.50;5054459;28;19925;-75
2024/01/24 08:06:51;;;;;;;;;;;;;;;2.70;89.83;94111.78;5057750;28;19951;-75
2024/01/24 08:09:18;;;;;;;;;;;;;;;2.85;91.54;94109.56;5051242;28;19920;-75
2024/01/24 08:11:53;;;;;;;;;;;;;;;2.89;90.96;94110.91;5054141;28;19925;-75
2024/01/24 08:14:20;;;;;;;;;;;;;;;2.96;90.90;94107.81;5053714;28;19924;-75
2024/01/24 08:16:59;;;;;;;;;;;;;;;3.04;91.02;94111.22;5056744;28;19932;-75
2024/01/24 08:19:25;;;;;;;;;;;;;;;3.07;91.13;94113.47;5052273;28;19991;-76
2024/01/24 08:21:54;;;;;;;;;;;;;;;2.77;90.19;94124.69;5050152;28;19924;-76
2024/01/24 08:24:20;;;;;;;;;;;;;;;2.54;91.70;94123.28;5057133;28;19920;-76
2024/01/24 08:26:47;;;;;;;;;;;;;;;2.43;91.46;94123.44;5055542;28;20973;-76
2024/01/24 08:29:15;;;;;;;;;;;;;;;2.61;91.67;94115.94;5061402;28;19920;-75
2024/01/24 08:31:42;;;;;;;;;;;;;;;2.75;90.65;94116.41;5054997;28;19924;-76
2024/01/24 08:34:08;;;;;;;;;;;;;;;2.78;91.66;94131.38;5051105;28;19924;-75
2024/01/24 08:36:35;;;;;;;;;;;;;;;3.05;90.99;94122.97;5051942;28;19920;-75
2024/01/24 08:39:06;;;;;;;;;;;;;;;3.04;89.14;94129.00;5057247;28;20325;-75
2024/01/24 08:41:32;;;;;;;;;;;;;;;3.25;89.58;94122.09;5055940;28;19924;-75
2024/01/24 08:43:59;;;;;;;;;;;;;;;3.17;87.71;94118.53;5055836;28;19924;-75
2024/01/24 08:46:26;;;;;;;;;;;;;;;3.43;87.88;94117.84;5054477;28;20299;-75
2024/01/24 08:48:53;;;;;;;;;;;;;;;3.67;90.01;94113.97;5056155;28;19931;-74
2024/01/24 08:51:21;;;;;;;;;;;;;;;3.70;86.30;94113.66;5054685;28;19924;-74
2024/01/24 08:53:47;;;;;;;;;;;;;;;3.35;86.30;94112.69;5052811;28;19987;-74
2024/01/24 08:56:14;;;;;;;;;;;;;;;3.20;87.75;94095.38;5055812;28;20437;-74
2024/01/24 08:58:42;;;;;;;;;;;;;;;3.21;87.39;94106.34;5049670;28;19928;-74
2024/01/24 09:01:09;;;;;;;;;;;;;;;3.03;88.85;94106.28;5052362;28;20386;-73
2024/01/24 09:03:35;;;;;;;;;;;;;;;3.20;89.37;94105.53;5053138;28;19921;-73
2024/01/24 09:06:02;;;;;;;;;;;;;;;3.00;89.41;94109.13;5057302;28;20441;-73
2024/01/24 09:08:29;;;;;;;;;;;;;;;3.32;90.45;94116.31;5049982;28;20061;-74
2024/01/24 09:10:55;;;;;;;;;;;;;;;3.14;88.75;94110.41;5056394;28;19944;-74
2024/01/24 09:13:23;;;;;;;;;;;;;;;3.23;89.38;94107.00;5051559;28;19920;-74
2024/01/24 09:15:50;;;;;;;;;;;;;;;3.36;88.76;94103.31;5053154;28;19930;-74
2024/01/24 09:18:17;;;;;;;;;;;;;;;3.47;88.16;94100.56;5051562;28;19983;-74
2024/01/24 09:20:44;;;;;;;;;;;;;;;3.61;87.47;94105.16;5052882;28;19967;-74
2024/01/24 09:23:10;;;;;;;;;;;;;;;3.23;86.82;94101.91;5049592;28;19946;-74
2024/01/24 09:25:37;;;;;;;;;;;;;;;3.29;88.17;94096.25;5053130;28;19921;-73
2024/01/24 09:28:05;;;;;;;;;;;;;;;3.65;89.39;94087.09;5054105;28;19920;-74
2024/01/24 09:30:33;;;;;;;;;;;;;;;3.42;86.78;94097.69;5060053;28;20441;-74
2024/01/24 09:33:00;;;;;;;;;;;;;;;3.83;87.86;94092.97;5050708;28;19925;-74
2024/01/24 09:35:26;;;;;;;;;;;;;;;3.86;86.80;94090.16;5051600;28;19921;-74
2024/01/24 09:37:53;;;;;;;;;;;;;;;3.92;86.51;94086.22;5056064;28;19936;-74
2024/01/24 09:40:20;;;;;;;;;;;;;;;4.01;85.75;94082.78;5052969;28;20003;-74
2024/01/24 09:42:46;;;;;;;;;;;;;;;4.06;84.30;94079.81;5057054;28;19920;-74
2024/01/24 09:45:16;;;;;;;;;;;;;;;3.85;84.13;94072.50;5052118;28;19946;-74
2024/01/24 09:47:46;;;;;;;;;;;;;;;3.97;84.03;94067.97;5052865;28;20286;-74
2024/01/24 09:50:13;;;;;;;;;;;;;;;3.63;83.27;94064.38;5050860;28;19927;-73
2024/01/24 09:52:40;;;;;;;;;;;;;;;3.86;83.83;94063.94;5051700;28;20349;-73
2024/01/24 09:55:09;;;;;;;;;;;;;;;4.16;84.15;94054.28;5053270;28;20302;-73
2024/01/24 09:57:35;;;;;;;;;;;;;;;3.94;82.01;94050.47;5058806;28;20421;-73
2024/01/24 10:00:02;;;;;;;;;;;;;;;4.02;82.94;94050.53;5061099;28;19932;-73
2024/01/24 10:02:30;;;;;;;;;;;;;;;4.23;84.46;94050.22;5056130;28;19925;-73
2024/01/24 10:04:59;;;;;;;;;;;;;;;4.04;84.34;94046.13;5053683;28;19920;-73
2024/01/24 10:07:27;;;;;;;;;;;;;;;3.87;82.90;94043.44;5049744;28;19930;-73
2024/01/24 10:10:06;;;;;;;;;;;;;;;4.07;83.75;94027.22;5049855;28;20378;-73
2024/01/24 10:12:32;;;;;;;;;;;;;;;4.26;82.41;94026.22;5051648;28;19982;-73
2024/01/24 10:14:59;;;;;;;;;;;;;;;4.59;83.39;94028.94;5055456;28;19921;-73
2024/01/24 10:17:26;;;;;;;;;;;;;;;4.37;81.42;94031.06;5052015;28;19925;-73
2024/01/24 10:19:52;;;;;;;;;;;;;;;4.52;81.51;94027.94;5050978;28;19944;-73
2024/01/24 10:22:21;;;;;;;;;;;;;;;4.41;80.85;94021.38;5049380;28;19920;-73
2024/01/24 10:24:48;;;;;;;;;;;;;;;4.07;80.02;94017.84;5049509;28;19974;-73
2024/01/24 10:27:15;;;;;;;;;;;;;;;4.01;81.60;94013.34;5049270;28;20011;-73
2024/01/24 10:29:43;;;;;;;;;;;;;;;4.19;81.33;94009.94;5049268;28;19921;-74
2024/01/24 10:32:10;;;;;;;;;;;;;;;3.87;81.13;94014.69;5048160;28;19927;-74
2024/01/24 10:34:37;;;;;;;;;;;;;;;3.93;82.53;94010.75;5052115;28;19931;-74
2024/01/24 10:37:04;;;;;;;;;;;;;;;4.04;79.33;94009.72;5053170;28;19920;-73
2024/01/24 10:39:34;;;;;;;;;;;;;;;3.87;80.60;94004.50;5051291;28;19924;-74
2024/01/24 10:42:03;;;;;;;;;;;;;;;3.79;79.15;94007.00;5051626;28;20011;-74
2024/01/24 10:44:32;;;;;;;;;;;;;;;3.70;80.42;94006.16;5049190;28;19939;-74
2024/01/24 10:46:59;;;;;;;;;;;;;;;4.10;81.67;93991.31;5047819;28;19921;-74
2024/01/24 10:49:26;;;;;;;;;;;;;;;4.14;81.09;93983.25;5047522;28;19987;-74
2024/01/24 10:51:53;;;;;;;;;;;;;;;4.29;82.28;93982.69;5047386;28;20287;-74
2024/01/24 10:54:20;;;;;;;;;;;;;;;4.50;83.33;93976.41;5049766;28;19925;-75
2024/01/24 10:56:50;;;;;;;;;;;;;;;4.06;82.15;93983.19;5054519;28;19930;-74
2024/01/24 10:59:17;;;;;;;;;;;;;;;4.10;83.28;93979.41;5047196;28;20015;-74
2024/01/24 11:01:44;;;;;;;;;;;;;;;3.96;82.14;93974.88;5052363;28;19924;-74
2024/01/24 11:04:13;;;;;;;;;;;;;;;3.80;81.39;93966.19;5047546;28;19924;-74
2024/01/24 11:06:45;;;;;;;;;;;;;;;3.94;82.60;93956.44;5053513;28;19927;-74
2024/01/24 11:09:22;;;;;;;;;;;;;;;4.10;84.00;93951.44;5053755;28;19924;-74
2024/01/24 11:11:51;;;;;;;;;;;;;;;4.06;84.83;93947.59;5056637;28;19926;-74
2024/01/24 11:14:29;;;;;;;;;;;;;;;4.25;84.74;93948.31;5049161;28;19929;-74
2024/01/24 11:16:56;;;;;;;;;;;;;;;4.30;84.51;93945.34;5055604;28;20026;-74
2024/01/24 11:19:23;;;;;;;;;;;;;;;4.11;84.86;93960.66;5049933;28;20305;-73
2024/01/24 11:21:50;;;;;;;;;;;;;;;3.91;85.30;93944.81;5047539;28;19925;-73
2024/01/24 11:24:32;;;;;;;;;;;;;;;3.74;85.21;93956.63;5047006;28;19927;-73
2024/01/24 11:27:00;;;;;;;;;;;;;;;4.04;86.04;93948.69;5050644;28;19930;-73
2024/01/24 11:29:33;;;;;;;;;;;;;;;3.87;84.50;93944.31;5051012;28;19920;-73
2024/01/24 11:32:00;;;;;;;;;;;;;;;3.93;83.69;93942.13;5048582;28;19931;-73
2024/01/24 11:34:28;;;;;;;;;;;;;;;4.16;83.74;93936.53;5046347;28;19927;-73
2024/01/24 11:36:54;;;;;;;;;;;;;;;4.03;83.59;93947.09;5048860;28;19935;-73
2024/01/24 11:39:34;;;;;;;;;;;;;;;4.04;85.04;93943.59;5050833;28;19920;-74
2024/01/24 11:42:19;;;;;;;;;;;;;;;4.04;82.52;93946.97;5049763;28;19925;-73
2024/01/24 11:44:48;;;;;;;;;;;;;;;4.41;84.12;93938.22;5055645;28;19920;-73
2024/01/24 11:47:14;;;;;;;;;;;;;;;4.59;83.43;93934.78;5055436;28;20275;-74
2024/01/24 11:49:41;;;;;;;;;;;;;;;4.63;82.54;93927.66;5053986;28;19932;-73
2024/01/24 11:52:08;;;;;;;;;;;;;;;4.74;82.75;93932.44;5048233;28;19931;-73
2024/01/24 11:54:34;;;;;;;;;;;;;;;4.64;80.23;93930.00;5056663;28;20264;-73
2024/01/24 11:57:01;;;;;;;;;;;;;;;4.58;80.69;93930.63;5049875;28;19956;-73
2024/01/24 11:59:27;;;;;;;;;;;;;;;4.73;81.59;93918.13;5051283;28;20059;-73
2024/01/24 12:01:56;;;;;;;;;;;;;;;4.46;81.24;93912.31;5048384;28;19924;-73
2024/01/24 12:04:24;;;;;;;;;;;;;;;4.44;82.47;93909.13;5051315;28;19931;-73
2024/01/24 12:06:51;;;;;;;;;;;;;;;4.60;82.14;93902.50;5049653;28;20295;-73
2024/01/24 12:09:28;;;;;;;;;;;;;;;4.64;81.98;93899.47;5047862;28;19943;-73
2024/01/24 12:11:55;;;;;;;;;;;;;;;4.88;84.46;93905.59;5016117;28;19929;-73
2024/01/24 12:14:22;;;;;;;;;;;;;;;4.98;83.46;93907.16;5010481;28;19925;-73
2024/01/24 12:16:49;;;;;;;;;;;;;;;4.63;80.48;93907.28;5008672;28;19941;-73
2024/01/24 12:19:17;;;;;;;;;;;;;;;4.54;81.59;93901.38;5018713;28;19925;-73
2024/01/24 12:21:44;;;;;;;;;;;;;;;4.75;83.99;93895.84;5012058;28;19940;-73
2024/01/24 12:24:10;;;;;;;;;;;;;;;4.81;81.97;93885.03;5020446;28;19925;-72
2024/01/24 12:26:37;;;;;;;;;;;;;;;4.86;81.50;93873.59;5013034;28;19944;-73
2024/01/24 12:29:04;;;;;;;;;;;;;;;4.78;81.59;93859.13;5014112;28;19979;-73
2024/01/24 12:31:31;;;;;;;;;;;;;;;4.67;80.41;93850.81;5007056;28;19929;-72
2024/01/24 12:33:57;;;;;;;;;;;;;;;4.95;82.02;93860.72;5011568;28;20379;-72
2024/01/24 12:36:25;;;;;;;;;;;;;;;4.60;80.59;93852.41;5008992;28;19921;-73
2024/01/24 12:38:54;;;;;;;;;;;;;;;4.37;82.48;93860.63;5013819;28;19927;-72
2024/01/24 12:41:21;;;;;;;;;;;;;;;4.43;81.47;93859.19;5010548;28;20002;-72
2024/01/24 12:43:47;;;;;;;;;;;;;;;4.57;82.05;93859.56;5012647;28;19931;-72
2024/01/24 12:46:14;;;;;;;;;;;;;;;4.47;80.25;93862.22;5013635;28;20260;-72
2024/01/24 12:48:41;;;;;;;;;;;;;;;4.68;81.13;93846.53;5011094;28;20447;-72
2024/01/24 12:51:08;;;;;;;;;;;;;;;4.64;81.34;93840.16;5010952;28;20295;-73
2024/01/24 12:53:36;;;;;;;;;;;;;;;4.31;79.79;93807.84;5013631;28;19932;-72